createdAt,value
2024-04-25T00:03:17.075Z,96286.25
2024-04-25T00:08:19.095Z,96281.97
2024-04-25T00:13:27.316Z,96287.69
2024-04-25T00:18:29.786Z,96293.31
2024-04-25T00:23:32.230Z,96287.88
2024-04-25T00:28:34.267Z,96288.88
2024-04-25T00:33:36.477Z,96280.34
2024-04-25T00:38:38.766Z,96280.41
2024-04-25T00:43:40.686Z,96280.34
2024-04-25T00:48:42.771Z,96274.28
2024-04-25T00:53:45.639Z,96273.34
2024-04-25T00:58:50.367Z,96262.75
2024-04-25T01:03:54.441Z,96265.47
2024-04-25T01:08:56.668Z,96258.91
2024-04-25T01:13:58.573Z,96263.19
2024-04-25T01:19:00.499Z,96266.16
2024-04-25T01:24:04.359Z,96261.56
2024-04-25T01:29:09.975Z,96271.22
2024-04-25T01:34:15.452Z,96268.59
2024-04-25T01:39:17.433Z,96265.47
2024-04-25T01:44:19.586Z,96266.47
2024-04-25T01:49:22.192Z,96258.78
2024-04-25T01:54:24.074Z,96268.97
2024-04-25T01:59:26.271Z,96272.81
2024-04-25T02:04:28.257Z,96266.66
2024-04-25T02:09:30.275Z,96265.41
2024-04-25T02:14:32.726Z,96267.28
2024-04-25T02:19:34.715Z,96265.91
2024-04-25T02:24:55.553Z,96260.22
2024-04-25T02:29:57.448Z,96259.41
2024-04-25T02:34:59.523Z,96261.34
2024-04-25T02:40:01.624Z,96255.94
2024-04-25T02:45:03.653Z,96263.38
2024-04-25T02:50:06.200Z,96259.03
2024-04-25T02:55:08.185Z,96254.69
2024-04-25T03:00:10.863Z,96250.47
2024-04-25T03:05:13.417Z,96251.59
2024-04-25T03:10:15.413Z,96243.22
2024-04-25T03:15:17.358Z,96247.31
2024-04-25T03:20:19.439Z,96241.88
2024-04-25T03:25:21.304Z,96252.16
2024-04-25T03:30:23.152Z,96251.91
2024-04-25T03:35:25.308Z,96251.13
2024-04-25T03:40:27.328Z,96255.50
2024-04-25T03:45:29.601Z,96248.50
2024-04-25T03:50:31.793Z,96249.94
2024-04-25T03:55:33.793Z,96249.69
2024-04-25T04:00:35.619Z,96255.69
2024-04-25T04:05:37.521Z,96260.84
2024-04-25T04:10:42.555Z,96257.38
2024-04-25T04:15:45.037Z,96255.97
2024-04-25T04:20:50.111Z,96257.38
2024-04-25T04:25:52.507Z,96257.91
2024-04-25T04:30:54.635Z,96261.13
2024-04-25T04:35:56.986Z,96266.56
2024-04-25T04:40:59.715Z,96276.34
2024-04-25T04:46:04.971Z,96267.19
2024-04-25T04:51:07.517Z,96280.78
2024-04-25T04:56:09.554Z,96282.47
2024-04-25T05:01:11.498Z,96278.22
2024-04-25T05:06:13.390Z,96292.88
2024-04-25T05:11:15.437Z,96304.31
2024-04-25T05:16:17.567Z,96295.13
2024-04-25T05:21:19.459Z,96295.13
2024-04-25T05:26:21.505Z,96298.97
2024-04-25T05:31:24.127Z,96295.19
2024-04-25T05:36:25.982Z,96302.81
2024-04-25T05:41:27.964Z,96300.59
2024-04-25T05:46:29.889Z,96299.56
2024-04-25T05:51:31.873Z,96298.22
2024-04-25T05:56:33.810Z,96296.34
2024-04-25T06:01:35.680Z,96306.69
2024-04-25T06:06:37.488Z,96304.03
2024-04-25T06:11:39.553Z,96303.28
2024-04-25T06:16:42.033Z,96309.63
2024-04-25T06:21:43.878Z,96305.38
2024-04-25T06:26:45.817Z,96306.25
2024-04-25T06:31:48.559Z,96297.88
2024-04-25T06:36:51.268Z,96314.31
2024-04-25T06:41:58.327Z,96303.50
2024-04-25T06:47:03.553Z,96319.84
2024-04-25T06:52:06.014Z,96314.69
2024-04-25T06:57:08.819Z,96321.97
2024-04-25T07:02:11.025Z,96323.06
2024-04-25T07:07:13.626Z,96328.00
2024-04-25T07:12:15.629Z,96331.81
2024-04-25T07:17:17.531Z,96335.66
2024-04-25T07:22:19.485Z,96326.97
2024-04-25T07:27:21.447Z,96321.31
2024-04-25T07:32:23.564Z,96333.47
2024-04-25T07:37:27.153Z,96333.16
2024-04-25T07:42:30.262Z,96344.88
2024-04-25T07:47:32.842Z,96363.72
2024-04-25T07:52:35.524Z,96365.31
2024-04-25T07:57:37.684Z,96350.28
2024-04-25T08:02:39.720Z,96350.66
2024-04-25T08:07:42.039Z,96357.13
2024-04-25T08:12:45.367Z,96360.38
2024-04-25T08:17:49.878Z,96365.72
2024-04-25T08:22:52.833Z,96352.13
2024-04-25T08:27:55.184Z,96353.38
2024-04-25T08:32:58.045Z,96362.78
2024-04-25T08:38:01.432Z,96361.53
2024-04-25T08:43:04.501Z,96357.50
2024-04-25T08:48:08.013Z,96361.97
2024-04-25T08:53:11.244Z,96364.78
2024-04-25T08:58:13.674Z,96357.25
2024-04-25T09:03:16.216Z,96349.72
2024-04-25T09:08:18.867Z,96358.50
2024-04-25T09:13:22.509Z,96337.00
2024-04-25T09:18:24.953Z,96340.00
2024-04-25T09:23:27.110Z,96344.34
2024-04-25T09:28:29.085Z,96337.75
2024-04-25T09:33:31.694Z,96344.78
2024-04-25T09:38:34.972Z,96343.63
2024-04-25T09:43:36.982Z,96333.34
2024-04-25T09:48:44.258Z,96325.28
2024-04-25T09:54:03.875Z,96319.34
2024-04-25T09:59:47.707Z,96313.69
2024-04-25T10:04:50.607Z,96330.31
2024-04-25T10:09:53.380Z,96316.44
2024-04-25T10:14:57.230Z,96303.63
2024-04-25T10:20:01.932Z,96302.00
2024-04-25T10:25:06.161Z,96307.16
2024-04-25T10:30:10.446Z,96300.91
2024-04-25T10:35:15.470Z,96295.44
2024-04-25T10:40:18.159Z,96278.53
2024-04-25T10:45:20.049Z,96283.41
2024-04-25T10:50:22.173Z,96281.22
2024-04-25T10:55:24.850Z,96272.97
2024-04-25T11:00:26.876Z,96281.09
2024-04-25T11:05:28.942Z,96271.81
2024-04-25T11:10:31.069Z,96263.63
2024-04-25T11:15:33.186Z,96271.50
2024-04-25T11:20:36.469Z,96270.19
2024-04-25T11:25:38.572Z,96270.19
2024-04-25T11:30:41.410Z,96266.41
2024-04-25T11:35:47.438Z,96270.16
2024-04-25T11:40:50.848Z,96264.66
2024-04-25T11:45:53.086Z,96256.28
2024-04-25T11:50:55.042Z,96252.09
2024-04-25T11:55:57.775Z,96247.53
2024-04-25T12:01:00.551Z,96249.47
2024-04-25T12:06:03.949Z,96236.88
2024-04-25T12:11:05.995Z,96237.38
2024-04-25T12:16:07.883Z,96231.53
2024-04-25T12:21:10.869Z,96228.69
2024-04-25T12:26:17.987Z,96251.00
2024-04-25T12:31:20.022Z,96281.22
2024-04-25T12:36:22.067Z,96300.91
2024-04-25T12:41:24.211Z,96328.06
2024-04-25T12:46:26.196Z,96314.41
2024-04-25T12:51:28.399Z,96307.84
2024-04-25T12:56:30.857Z,96304.78
2024-04-25T13:01:32.738Z,96308.91
2024-04-25T13:06:34.540Z,96290.47
2024-04-25T13:11:36.507Z,96276.88
2024-04-25T13:16:38.479Z,96281.28
2024-04-25T13:21:42.004Z,96269.81
2024-04-25T13:26:44.062Z,96265.44
2024-04-25T13:31:45.976Z,96256.69
2024-04-25T13:36:50.723Z,96264.88
2024-04-25T13:41:52.584Z,96271.44
2024-04-25T13:46:56.744Z,96270.38
2024-04-25T13:51:59.507Z,96268.19
2024-04-25T13:57:03.921Z,96259.19
2024-04-25T14:02:06.231Z,96236.28
2024-04-25T14:07:10.245Z,96238.00
2024-04-25T14:12:12.508Z,96226.41
2024-04-25T14:17:14.599Z,96224.75
2024-04-25T14:22:16.484Z,96230.28
2024-04-25T14:27:37.689Z,96226.94
2024-04-25T14:32:39.647Z,96234.91
2024-04-25T14:37:41.571Z,96230.19
2024-04-25T14:42:43.502Z,96224.00
2024-04-25T14:47:45.542Z,96210.06
2024-04-25T14:52:47.714Z,96206.09
2024-04-25T14:57:49.836Z,96208.34
2024-04-25T15:02:51.764Z,96218.38
2024-04-25T15:08:01.781Z,96219.25
2024-04-25T15:13:14.986Z,96217.06
2024-04-25T15:18:22.644Z,96204.03
2024-04-25T15:23:29.145Z,96204.50
2024-04-25T15:28:40.127Z,96206.44
2024-04-25T15:33:58.787Z,96204.16
2024-04-25T15:39:02.704Z,96192.56
2024-04-25T15:44:11.306Z,96190.50
2024-04-25T15:49:19.827Z,96187.47
2024-04-25T15:54:25.096Z,96191.13
2024-04-25T15:59:28.412Z,96192.28
2024-04-25T16:04:31.944Z,96179.03
2024-04-25T16:10:05.208Z,96180.50
2024-04-25T16:15:10.174Z,96180.22
2024-04-25T16:20:16.160Z,96179.19
2024-04-25T16:25:22.835Z,96181.03
2024-04-25T16:30:26.266Z,96188.75
2024-04-25T16:35:32.682Z,96188.53
2024-04-25T16:40:43.850Z,96187.28
2024-04-25T16:45:54.332Z,96187.13
2024-04-25T16:50:58.695Z,96189.66
2024-04-25T16:56:02.090Z,96192.25
2024-04-25T17:01:11.266Z,96182.22
2024-04-25T17:06:22.521Z,96181.19
2024-04-25T17:11:29.458Z,96180.94
2024-04-25T17:16:40.577Z,96181.00
2024-04-25T17:21:58.068Z,96173.59
2024-04-25T17:27:01.780Z,96181.75
2024-04-25T17:32:13.568Z,96187.97
2024-04-25T17:37:48.697Z,96178.78
2024-04-25T17:42:58.281Z,96183.38
2024-04-25T17:48:12.667Z,96185.34
2024-04-25T17:53:19.810Z,96190.03
2024-04-25T17:58:27.130Z,96194.19
2024-04-25T18:03:35.304Z,96203.19
2024-04-25T18:08:38.974Z,96204.88
2024-04-25T18:13:48.846Z,96210.81
2024-04-25T18:19:02.425Z,96216.44
2024-04-25T18:24:17.442Z,96223.28
2024-04-25T18:29:30.961Z,96225.09
2024-04-25T18:34:45.382Z,96230.34
2024-04-25T18:39:56.603Z,96233.38
2024-04-25T18:45:13.443Z,96245.06
2024-04-25T18:50:34.768Z,96249.97
2024-04-25T18:55:50.479Z,96251.56
2024-04-25T19:00:54.821Z,96249.66
2024-04-25T19:06:05.645Z,96250.16
2024-04-25T19:11:11.303Z,96261.53
2024-04-25T19:16:27.913Z,96256.03
2024-04-25T19:21:55.808Z,96257.06
2024-04-25T19:26:59.115Z,96265.75
2024-04-25T19:32:09.604Z,96265.16
2024-04-25T19:37:18.021Z,96269.72
2024-04-25T19:42:30.262Z,96269.19
2024-04-25T19:47:40.528Z,96272.69
2024-04-25T19:52:47.121Z,96271.84
2024-04-25T19:57:59.678Z,96275.25
2024-04-25T20:03:23.043Z,96267.75
2024-04-25T20:08:33.237Z,96261.28
2024-04-25T20:14:01.811Z,96265.78
2024-04-25T20:19:31.082Z,96266.38
2024-04-25T20:24:42.466Z,96262.38
2024-04-25T20:29:51.972Z,96261.09
2024-04-25T20:34:56.061Z,96266.56
2024-04-25T20:40:05.725Z,96259.41
2024-04-25T20:45:15.894Z,96259.47
2024-04-25T20:50:25.640Z,96259.16
2024-04-25T20:55:36.596Z,96262.81
2024-04-25T21:00:52.679Z,96265.81
2024-04-25T21:06:01.610Z,96265.81
2024-04-25T21:11:18.663Z,96262.75
2024-04-25T21:16:42.909Z,96258.84
2024-04-25T21:21:59.580Z,96261.22
2024-04-25T21:27:14.200Z,96264.13
2024-04-25T21:32:25.680Z,96269.03
2024-04-25T21:37:36.752Z,96253.13
2024-04-25T21:42:47.938Z,96260.78
2024-04-25T21:47:57.299Z,96255.66
2024-04-25T21:53:03.907Z,96248.09
2024-04-25T21:58:11.089Z,96242.28
2024-04-25T22:03:17.781Z,96247.59
2024-04-25T22:08:27.532Z,96247.34
2024-04-25T22:13:35.854Z,96239.50
2024-04-25T22:18:45.338Z,96244.41
2024-04-25T22:23:57.454Z,96239.56
2024-04-25T22:29:05.706Z,96243.38
2024-04-25T22:34:18.550Z,96243.25
2024-04-25T22:39:32.189Z,96246.63
2024-04-25T22:44:39.169Z,96242.06
2024-04-25T22:49:53.665Z,96241.84
2024-04-25T22:55:04.348Z,96233.97
2024-04-25T23:00:13.194Z,96240.03
2024-04-25T23:05:22.252Z,96232.44
2024-04-25T23:10:32.297Z,96240.09
2024-04-25T23:15:36.739Z,96234.41
2024-04-25T23:20:44.045Z,96222.22
2024-04-25T23:25:53.606Z,96221.13
2024-04-25T23:30:59.442Z,96223.03
2024-04-25T23:36:05.248Z,96220.63
2024-04-25T23:41:12.291Z,96220.09
2024-04-25T23:46:18.931Z,96210.84
2024-04-25T23:51:26.603Z,96220.09
2024-04-25T23:56:41.244Z,96219.56
